sensor_id;sensor_type;location;lat;lon;timestamp;P1;durP1;ratioP1;P2;durP2;ratioP2
73980;SDS011;62348;51.412;5.436;2023-12-29T00:01:57;9.13;;;1.85;;
73980;SDS011;62348;51.412;5.436;2023-12-29T00:04:24;7.50;;;2.05;;
73980;SDS011;62348;51.412;5.436;2023-12-29T00:06:52;8.93;;;1.90;;
73980;SDS011;62348;51.412;5.436;2023-12-29T00:09:18;7.38;;;2.08;;
73980;SDS011;62348;51.412;5.436;2023-12-29T00:11:46;5.63;;;2.00;;
73980;SDS011;62348;51.412;5.436;2023-12-29T00:14:15;6.80;;;1.80;;
73980;SDS011;62348;51.412;5.436;2023-12-29T00:16:40;8.68;;;1.80;;
73980;SDS011;62348;51.412;5.436;2023-12-29T00:19:06;6.43;;;1.88;;
73980;SDS011;62348;51.412;5.436;2023-12-29T00:21:31;6.97;;;1.85;;
73980;SDS011;62348;51.412;5.436;2023-12-29T00:23:57;9.80;;;2.00;;
73980;SDS011;62348;51.412;5.436;2023-12-29T00:26:22;9.05;;;2.20;;
73980;SDS011;62348;51.412;5.436;2023-12-29T00:28:48;6.40;;;1.67;;
73980;SDS011;62348;51.412;5.436;2023-12-29T00:31:16;5.93;;;1.60;;
73980;SDS011;62348;51.412;5.436;2023-12-29T00:33:45;5.53;;;2.13;;
73980;SDS011;62348;51.412;5.436;2023-12-29T00:36:14;5.65;;;1.60;;
73980;SDS011;62348;51.412;5.436;2023-12-29T00:41:08;7.00;;;1.95;;
73980;SDS011;62348;51.412;5.436;2023-12-29T00:43:34;11.80;;;2.35;;
73980;SDS011;62348;51.412;5.436;2023-12-29T00:46:03;7.72;;;2.30;;
73980;SDS011;62348;51.412;5.436;2023-12-29T00:48:29;8.45;;;1.98;;
73980;SDS011;62348;51.412;5.436;2023-12-29T00:50:57;9.80;;;2.40;;
73980;SDS011;62348;51.412;5.436;2023-12-29T00:53:23;7.10;;;1.90;;
73980;SDS011;62348;51.412;5.436;2023-12-29T00:55:48;7.72;;;2.33;;
73980;SDS011;62348;51.412;5.436;2023-12-29T00:58:14;7.32;;;2.05;;
73980;SDS011;62348;51.412;5.436;2023-12-29T01:00:39;9.80;;;2.65;;
73980;SDS011;62348;51.412;5.436;2023-12-29T01:03:05;8.38;;;2.03;;
73980;SDS011;62348;51.412;5.436;2023-12-29T01:05:30;9.85;;;2.65;;
73980;SDS011;62348;51.412;5.436;2023-12-29T01:07:56;11.60;;;2.97;;
73980;SDS011;62348;51.412;5.436;2023-12-29T01:10:21;9.98;;;2.25;;
73980;SDS011;62348;51.412;5.436;2023-12-29T01:12:46;12.77;;;3.10;;
73980;SDS011;62348;51.412;5.436;2023-12-29T01:15:12;7.85;;;1.95;;
73980;SDS011;62348;51.412;5.436;2023-12-29T01:17:38;8.10;;;1.98;;
73980;SDS011;62348;51.412;5.436;2023-12-29T01:20:03;10.85;;;2.15;;
73980;SDS011;62348;51.412;5.436;2023-12-29T01:22:29;9.55;;;2.13;;
73980;SDS011;62348;51.412;5.436;2023-12-29T01:24:55;6.70;;;1.98;;
73980;SDS011;62348;51.412;5.436;2023-12-29T01:27:20;9.55;;;1.92;;
73980;SDS011;62348;51.412;5.436;2023-12-29T01:29:46;7.18;;;2.10;;
73980;SDS011;62348;51.412;5.436;2023-12-29T01:32:11;12.02;;;1.98;;
73980;SDS011;62348;51.412;5.436;2023-12-29T01:34:37;11.38;;;3.13;;
73980;SDS011;62348;51.412;5.436;2023-12-29T01:37:03;10.45;;;2.13;;
73980;SDS011;62348;51.412;5.436;2023-12-29T01:39:29;13.13;;;2.40;;
73980;SDS011;62348;51.412;5.436;2023-12-29T01:41:55;9.18;;;2.20;;
73980;SDS011;62348;51.412;5.436;2023-12-29T01:44:21;9.48;;;2.53;;
73980;SDS011;62348;51.412;5.436;2023-12-29T01:46:48;9.63;;;2.40;;
73980;SDS011;62348;51.412;5.436;2023-12-29T01:49:16;9.10;;;2.35;;
73980;SDS011;62348;51.412;5.436;2023-12-29T01:51:46;11.10;;;2.60;;
73980;SDS011;62348;51.412;5.436;2023-12-29T01:54:15;11.15;;;2.47;;
73980;SDS011;62348;51.412;5.436;2023-12-29T01:56:41;7.50;;;2.40;;
73980;SDS011;62348;51.412;5.436;2023-12-29T01:59:07;9.40;;;2.30;;
73980;SDS011;62348;51.412;5.436;2023-12-29T02:01:32;8.57;;;2.40;;
73980;SDS011;62348;51.412;5.436;2023-12-29T02:03:59;17.30;;;4.43;;
73980;SDS011;62348;51.412;5.436;2023-12-29T02:06:25;8.02;;;1.83;;
73980;SDS011;62348;51.412;5.436;2023-12-29T02:08:51;9.52;;;2.75;;
73980;SDS011;62348;51.412;5.436;2023-12-29T02:11:16;7.95;;;2.33;;
73980;SDS011;62348;51.412;5.436;2023-12-29T02:13:43;9.55;;;2.15;;
73980;SDS011;62348;51.412;5.436;2023-12-29T02:16:52;11.13;;;2.80;;
73980;SDS011;62348;51.412;5.436;2023-12-29T02:19:24;11.63;;;2.08;;
73980;SDS011;62348;51.412;5.436;2023-12-29T02:22:01;9.35;;;2.30;;
73980;SDS011;62348;51.412;5.436;2023-12-29T02:24:27;7.72;;;2.13;;
73980;SDS011;62348;51.412;5.436;2023-12-29T02:26:56;8.57;;;2.50;;
73980;SDS011;62348;51.412;5.436;2023-12-29T02:29:27;12.70;;;2.30;;
73980;SDS011;62348;51.412;5.436;2023-12-29T02:31:56;10.50;;;2.30;;
73980;SDS011;62348;51.412;5.436;2023-12-29T02:34:25;9.90;;;2.03;;
73980;SDS011;62348;51.412;5.436;2023-12-29T02:36:53;12.32;;;2.53;;
73980;SDS011;62348;51.412;5.436;2023-12-29T02:39:20;7.85;;;1.92;;
73980;SDS011;62348;51.412;5.436;2023-12-29T02:41:45;11.43;;;1.88;;
73980;SDS011;62348;51.412;5.436;2023-12-29T02:44:11;7.68;;;1.80;;
73980;SDS011;62348;51.412;5.436;2023-12-29T02:46:36;11.45;;;1.88;;
73980;SDS011;62348;51.412;5.436;2023-12-29T02:49:02;7.93;;;2.00;;
73980;SDS011;62348;51.412;5.436;2023-12-29T02:51:27;6.20;;;1.73;;
73980;SDS011;62348;51.412;5.436;2023-12-29T02:53:53;9.40;;;1.90;;
73980;SDS011;62348;51.412;5.436;2023-12-29T02:56:18;9.25;;;2.03;;
73980;SDS011;62348;51.412;5.436;2023-12-29T02:58:44;9.95;;;1.92;;
73980;SDS011;62348;51.412;5.436;2023-12-29T03:01:11;8.07;;;1.90;;
73980;SDS011;62348;51.412;5.436;2023-12-29T03:03:36;11.07;;;1.90;;
73980;SDS011;62348;51.412;5.436;2023-12-29T03:06:04;13.05;;;2.10;;
73980;SDS011;62348;51.412;5.436;2023-12-29T03:08:30;9.65;;;1.90;;
73980;SDS011;62348;51.412;5.436;2023-12-29T03:10:56;8.35;;;2.30;;
73980;SDS011;62348;51.412;5.436;2023-12-29T03:13:22;12.73;;;2.58;;
73980;SDS011;62348;51.412;5.436;2023-12-29T03:15:47;10.40;;;1.80;;
73980;SDS011;62348;51.412;5.436;2023-12-29T03:18:13;11.57;;;2.05;;
73980;SDS011;62348;51.412;5.436;2023-12-29T03:20:38;13.00;;;3.63;;
73980;SDS011;62348;51.412;5.436;2023-12-29T03:23:04;6.45;;;2.30;;
73980;SDS011;62348;51.412;5.436;2023-12-29T03:25:29;10.43;;;2.65;;
73980;SDS011;62348;51.412;5.436;2023-12-29T03:27:54;12.23;;;3.00;;
73980;SDS011;62348;51.412;5.436;2023-12-29T03:30:20;6.93;;;1.92;;
73980;SDS011;62348;51.412;5.436;2023-12-29T03:32:45;6.07;;;1.98;;
73980;SDS011;62348;51.412;5.436;2023-12-29T03:35:11;13.40;;;2.45;;
73980;SDS011;62348;51.412;5.436;2023-12-29T03:37:37;9.18;;;1.95;;
73980;SDS011;62348;51.412;5.436;2023-12-29T03:40:03;10.70;;;2.33;;
73980;SDS011;62348;51.412;5.436;2023-12-29T03:42:28;12.38;;;2.28;;
73980;SDS011;62348;51.412;5.436;2023-12-29T03:44:54;12.25;;;2.28;;
73980;SDS011;62348;51.412;5.436;2023-12-29T03:47:19;5.47;;;2.17;;
73980;SDS011;62348;51.412;5.436;2023-12-29T03:49:44;9.57;;;2.08;;
73980;SDS011;62348;51.412;5.436;2023-12-29T03:52:10;9.95;;;2.95;;
73980;SDS011;62348;51.412;5.436;2023-12-29T03:54:35;8.43;;;1.60;;
73980;SDS011;62348;51.412;5.436;2023-12-29T03:57:01;9.70;;;2.00;;
73980;SDS011;62348;51.412;5.436;2023-12-29T03:59:26;9.55;;;4.07;;
73980;SDS011;62348;51.412;5.436;2023-12-29T04:01:51;9.05;;;1.60;;
73980;SDS011;62348;51.412;5.436;2023-12-29T04:04:17;11.07;;;1.80;;
73980;SDS011;62348;51.412;5.436;2023-12-29T04:06:42;11.30;;;2.08;;
73980;SDS011;62348;51.412;5.436;2023-12-29T04:09:07;9.50;;;1.98;;
73980;SDS011;62348;51.412;5.436;2023-12-29T04:11:33;10.90;;;2.92;;
73980;SDS011;62348;51.412;5.436;2023-12-29T04:13:58;13.07;;;2.08;;
73980;SDS011;62348;51.412;5.436;2023-12-29T04:16:24;18.35;;;3.60;;
73980;SDS011;62348;51.412;5.436;2023-12-29T04:18:49;9.85;;;2.33;;
73980;SDS011;62348;51.412;5.436;2023-12-29T04:21:15;10.15;;;2.70;;
73980;SDS011;62348;51.412;5.436;2023-12-29T04:23:40;7.38;;;1.98;;
73980;SDS011;62348;51.412;5.436;2023-12-29T04:26:09;8.15;;;2.38;;
73980;SDS011;62348;51.412;5.436;2023-12-29T04:28:34;8.75;;;1.92;;
73980;SDS011;62348;51.412;5.436;2023-12-29T04:30:59;11.40;;;3.28;;
73980;SDS011;62348;51.412;5.436;2023-12-29T04:33:25;12.18;;;2.53;;
73980;SDS011;62348;51.412;5.436;2023-12-29T04:35:51;6.70;;;2.50;;
73980;SDS011;62348;51.412;5.436;2023-12-29T04:38:16;11.00;;;2.15;;
73980;SDS011;62348;51.412;5.436;2023-12-29T04:40:45;13.30;;;2.47;;
73980;SDS011;62348;51.412;5.436;2023-12-29T04:43:12;9.85;;;2.42;;
73980;SDS011;62348;51.412;5.436;2023-12-29T04:45:37;16.98;;;2.50;;
73980;SDS011;62348;51.412;5.436;2023-12-29T04:48:02;15.95;;;2.30;;
73980;SDS011;62348;51.412;5.436;2023-12-29T04:50:28;9.00;;;2.10;;
73980;SDS011;62348;51.412;5.436;2023-12-29T04:52:54;12.35;;;2.78;;
73980;SDS011;62348;51.412;5.436;2023-12-29T04:55:19;13.50;;;2.63;;
73980;SDS011;62348;51.412;5.436;2023-12-29T04:57:45;12.40;;;2.75;;
73980;SDS011;62348;51.412;5.436;2023-12-29T05:00:10;8.10;;;1.70;;
73980;SDS011;62348;51.412;5.436;2023-12-29T05:02:36;11.98;;;2.25;;
73980;SDS011;62348;51.412;5.436;2023-12-29T05:05:02;9.15;;;2.28;;
73980;SDS011;62348;51.412;5.436;2023-12-29T05:07:27;12.98;;;2.08;;
73980;SDS011;62348;51.412;5.436;2023-12-29T05:09:52;9.55;;;2.35;;
73980;SDS011;62348;51.412;5.436;2023-12-29T05:12:18;12.55;;;2.95;;
73980;SDS011;62348;51.412;5.436;2023-12-29T05:14:43;13.15;;;2.25;;
73980;SDS011;62348;51.412;5.436;2023-12-29T05:17:09;7.00;;;2.83;;
73980;SDS011;62348;51.412;5.436;2023-12-29T05:19:34;12.40;;;3.20;;
73980;SDS011;62348;51.412;5.436;2023-12-29T05:21:59;13.90;;;3.05;;
73980;SDS011;62348;51.412;5.436;2023-12-29T05:24:25;10.27;;;1.92;;
73980;SDS011;62348;51.412;5.436;2023-12-29T05:26:50;7.05;;;2.55;;
73980;SDS011;62348;51.412;5.436;2023-12-29T05:29:16;10.60;;;2.72;;
73980;SDS011;62348;51.412;5.436;2023-12-29T05:31:41;7.72;;;1.90;;
73980;SDS011;62348;51.412;5.436;2023-12-29T05:34:06;9.60;;;2.75;;
73980;SDS011;62348;51.412;5.436;2023-12-29T05:36:35;8.02;;;1.80;;
73980;SDS011;62348;51.412;5.436;2023-12-29T05:39:01;12.32;;;2.03;;
73980;SDS011;62348;51.412;5.436;2023-12-29T05:41:26;16.40;;;2.28;;
73980;SDS011;62348;51.412;5.436;2023-12-29T05:43:51;8.85;;;2.40;;
73980;SDS011;62348;51.412;5.436;2023-12-29T05:46:17;13.95;;;2.83;;
73980;SDS011;62348;51.412;5.436;2023-12-29T05:48:42;12.85;;;2.20;;
73980;SDS011;62348;51.412;5.436;2023-12-29T05:51:12;12.65;;;2.10;;
73980;SDS011;62348;51.412;5.436;2023-12-29T05:53:41;11.52;;;2.40;;
73980;SDS011;62348;51.412;5.436;2023-12-29T05:56:07;7.35;;;1.90;;
73980;SDS011;62348;51.412;5.436;2023-12-29T05:58:32;12.43;;;2.63;;
73980;SDS011;62348;51.412;5.436;2023-12-29T06:00:58;8.25;;;2.58;;
73980;SDS011;62348;51.412;5.436;2023-12-29T06:03:26;7.75;;;2.15;;
73980;SDS011;62348;51.412;5.436;2023-12-29T06:05:52;11.63;;;2.30;;
73980;SDS011;62348;51.412;5.436;2023-12-29T06:08:18;9.30;;;1.95;;
73980;SDS011;62348;51.412;5.436;2023-12-29T06:10:43;12.50;;;2.35;;
73980;SDS011;62348;51.412;5.436;2023-12-29T06:13:08;8.32;;;1.80;;
73980;SDS011;62348;51.412;5.436;2023-12-29T06:15:34;6.97;;;1.90;;
73980;SDS011;62348;51.412;5.436;2023-12-29T06:17:59;6.95;;;2.40;;
73980;SDS011;62348;51.412;5.436;2023-12-29T06:20:25;15.00;;;2.38;;
73980;SDS011;62348;51.412;5.436;2023-12-29T06:22:50;6.68;;;2.13;;
73980;SDS011;62348;51.412;5.436;2023-12-29T06:25:16;14.18;;;3.25;;
73980;SDS011;62348;51.412;5.436;2023-12-29T06:27:42;8.80;;;2.10;;
73980;SDS011;62348;51.412;5.436;2023-12-29T06:30:08;7.88;;;2.20;;
73980;SDS011;62348;51.412;5.436;2023-12-29T06:32:34;8.93;;;1.80;;
73980;SDS011;62348;51.412;5.436;2023-12-29T06:35:00;12.93;;;2.08;;
73980;SDS011;62348;51.412;5.436;2023-12-29T06:37:25;8.02;;;1.85;;
73980;SDS011;62348;51.412;5.436;2023-12-29T06:39:51;9.32;;;1.98;;
73980;SDS011;62348;51.412;5.436;2023-12-29T06:42:16;10.57;;;2.55;;
73980;SDS011;62348;51.412;5.436;2023-12-29T06:44:42;7.15;;;2.03;;
73980;SDS011;62348;51.412;5.436;2023-12-29T06:47:07;8.63;;;2.03;;
73980;SDS011;62348;51.412;5.436;2023-12-29T06:49:35;6.82;;;1.83;;
73980;SDS011;62348;51.412;5.436;2023-12-29T06:52:01;9.05;;;2.13;;
73980;SDS011;62348;51.412;5.436;2023-12-29T06:54:27;8.43;;;2.25;;
73980;SDS011;62348;51.412;5.436;2023-12-29T06:56:52;8.77;;;1.90;;
73980;SDS011;62348;51.412;5.436;2023-12-29T06:59:18;12.85;;;2.78;;
73980;SDS011;62348;51.412;5.436;2023-12-29T07:01:44;13.15;;;2.20;;
73980;SDS011;62348;51.412;5.436;2023-12-29T07:04:13;9.88;;;2.58;;
73980;SDS011;62348;51.412;5.436;2023-12-29T07:06:39;9.52;;;2.00;;
73980;SDS011;62348;51.412;5.436;2023-12-29T07:09:04;6.05;;;1.83;;
73980;SDS011;62348;51.412;5.436;2023-12-29T07:11:30;10.55;;;2.05;;
73980;SDS011;62348;51.412;5.436;2023-12-29T07:13:55;8.80;;;1.95;;
73980;SDS011;62348;51.412;5.436;2023-12-29T07:16:21;11.13;;;1.80;;
73980;SDS011;62348;51.412;5.436;2023-12-29T07:18:46;8.73;;;2.20;;
73980;SDS011;62348;51.412;5.436;2023-12-29T07:21:12;9.13;;;1.90;;
73980;SDS011;62348;51.412;5.436;2023-12-29T07:23:38;7.22;;;1.88;;
73980;SDS011;62348;51.412;5.436;2023-12-29T07:26:04;9.93;;;1.85;;
73980;SDS011;62348;51.412;5.436;2023-12-29T07:28:31;9.38;;;2.08;;
73980;SDS011;62348;51.412;5.436;2023-12-29T07:30:57;6.22;;;1.73;;
73980;SDS011;62348;51.412;5.436;2023-12-29T07:33:22;11.57;;;2.90;;
73980;SDS011;62348;51.412;5.436;2023-12-29T07:35:49;7.53;;;2.53;;
73980;SDS011;62348;51.412;5.436;2023-12-29T07:38:14;5.45;;;1.63;;
73980;SDS011;62348;51.412;5.436;2023-12-29T07:40:40;6.85;;;2.35;;
73980;SDS011;62348;51.412;5.436;2023-12-29T07:43:05;5.90;;;1.40;;
73980;SDS011;62348;51.412;5.436;2023-12-29T07:45:30;12.52;;;2.20;;
73980;SDS011;62348;51.412;5.436;2023-12-29T07:47:56;7.45;;;1.50;;
73980;SDS011;62348;51.412;5.436;2023-12-29T07:50:22;6.55;;;2.22;;
73980;SDS011;62348;51.412;5.436;2023-12-29T07:52:47;7.65;;;1.77;;
73980;SDS011;62348;51.412;5.436;2023-12-29T07:55:13;11.85;;;1.73;;
73980;SDS011;62348;51.412;5.436;2023-12-29T07:57:41;3.72;;;1.58;;
73980;SDS011;62348;51.412;5.436;2023-12-29T08:00:07;3.40;;;1.65;;
73980;SDS011;62348;51.412;5.436;2023-12-29T08:02:33;8.82;;;1.70;;
73980;SDS011;62348;51.412;5.436;2023-12-29T08:04:58;4.32;;;2.05;;
73980;SDS011;62348;51.412;5.436;2023-12-29T08:07:23;4.38;;;1.20;;
73980;SDS011;62348;51.412;5.436;2023-12-29T08:09:49;5.70;;;1.17;;
73980;SDS011;62348;51.412;5.436;2023-12-29T08:12:14;7.20;;;1.50;;
73980;SDS011;62348;51.412;5.436;2023-12-29T08:14:39;4.80;;;1.00;;
73980;SDS011;62348;51.412;5.436;2023-12-29T08:17:05;2.67;;;1.20;;
73980;SDS011;62348;51.412;5.436;2023-12-29T08:19:32;3.40;;;1.40;;
73980;SDS011;62348;51.412;5.436;2023-12-29T08:21:57;4.25;;;1.30;;
73980;SDS011;62348;51.412;5.436;2023-12-29T08:24:23;4.00;;;1.00;;
73980;SDS011;62348;51.412;5.436;2023-12-29T08:26:48;4.00;;;1.00;;
73980;SDS011;62348;51.412;5.436;2023-12-29T08:29:14;5.03;;;1.25;;
73980;SDS011;62348;51.412;5.436;2023-12-29T08:31:39;5.55;;;1.83;;
73980;SDS011;62348;51.412;5.436;2023-12-29T08:34:06;4.20;;;1.20;;
73980;SDS011;62348;51.412;5.436;2023-12-29T08:36:32;4.30;;;1.10;;
73980;SDS011;62348;51.412;5.436;2023-12-29T08:38:57;2.95;;;1.13;;
73980;SDS011;62348;51.412;5.436;2023-12-29T08:41:23;4.63;;;1.40;;
73980;SDS011;62348;51.412;5.436;2023-12-29T08:43:49;3.45;;;1.63;;
73980;SDS011;62348;51.412;5.436;2023-12-29T08:46:14;3.20;;;1.10;;
73980;SDS011;62348;51.412;5.436;2023-12-29T08:48:39;3.53;;;1.08;;
73980;SDS011;62348;51.412;5.436;2023-12-29T08:51:05;4.47;;;1.15;;
73980;SDS011;62348;51.412;5.436;2023-12-29T08:53:31;4.63;;;1.30;;
73980;SDS011;62348;51.412;5.436;2023-12-29T08:56:00;5.07;;;1.65;;
73980;SDS011;62348;51.412;5.436;2023-12-29T08:58:29;2.45;;;1.00;;
73980;SDS011;62348;51.412;5.436;2023-12-29T09:00:54;3.53;;;1.00;;
73980;SDS011;62348;51.412;5.436;2023-12-29T09:03:20;4.13;;;1.52;;
73980;SDS011;62348;51.412;5.436;2023-12-29T09:05:45;4.78;;;1.27;;
73980;SDS011;62348;51.412;5.436;2023-12-29T09:08:11;7.57;;;1.25;;
73980;SDS011;62348;51.412;5.436;2023-12-29T09:10:36;3.72;;;0.90;;
73980;SDS011;62348;51.412;5.436;2023-12-29T09:13:01;3.58;;;1.17;;
73980;SDS011;62348;51.412;5.436;2023-12-29T09:15:27;3.42;;;1.00;;
73980;SDS011;62348;51.412;5.436;2023-12-29T09:17:52;3.10;;;1.10;;
73980;SDS011;62348;51.412;5.436;2023-12-29T09:20:18;3.92;;;0.82;;
73980;SDS011;62348;51.412;5.436;2023-12-29T09:22:43;5.65;;;1.95;;
73980;SDS011;62348;51.412;5.436;2023-12-29T09:25:08;2.90;;;0.80;;
73980;SDS011;62348;51.412;5.436;2023-12-29T09:27:34;2.45;;;1.00;;
73980;SDS011;62348;51.412;5.436;2023-12-29T09:29:59;3.58;;;1.27;;
73980;SDS011;62348;51.412;5.436;2023-12-29T09:32:25;2.90;;;1.10;;
73980;SDS011;62348;51.412;5.436;2023-12-29T09:34:50;5.50;;;1.48;;
73980;SDS011;62348;51.412;5.436;2023-12-29T09:37:17;5.32;;;1.05;;
73980;SDS011;62348;51.412;5.436;2023-12-29T09:39:42;2.88;;;0.93;;
73980;SDS011;62348;51.412;5.436;2023-12-29T09:42:08;3.22;;;0.98;;
73980;SDS011;62348;51.412;5.436;2023-12-29T09:44:41;1.33;;;0.68;;
73980;SDS011;62348;51.412;5.436;2023-12-29T09:47:08;3.25;;;1.15;;
73980;SDS011;62348;51.412;5.436;2023-12-29T09:49:38;1.35;;;0.70;;
73980;SDS011;62348;51.412;5.436;2023-12-29T09:52:07;2.00;;;0.80;;
73980;SDS011;62348;51.412;5.436;2023-12-29T09:54:34;1.15;;;0.60;;
73980;SDS011;62348;51.412;5.436;2023-12-29T09:57:04;4.30;;;0.90;;
73980;SDS011;62348;51.412;5.436;2023-12-29T09:59:32;2.08;;;0.68;;
73980;SDS011;62348;51.412;5.436;2023-12-29T10:02:01;1.15;;;0.80;;
73980;SDS011;62348;51.412;5.436;2023-12-29T10:04:29;4.68;;;1.08;;
73980;SDS011;62348;51.412;5.436;2023-12-29T10:06:54;4.03;;;0.80;;
73980;SDS011;62348;51.412;5.436;2023-12-29T10:09:22;2.55;;;0.60;;
73980;SDS011;62348;51.412;5.436;2023-12-29T10:11:49;1.52;;;0.70;;
73980;SDS011;62348;51.412;5.436;2023-12-29T10:14:22;1.02;;;0.70;;
73980;SDS011;62348;51.412;5.436;2023-12-29T10:16:53;1.98;;;0.70;;
73980;SDS011;62348;51.412;5.436;2023-12-29T10:19:58;0.98;;;0.60;;
73980;SDS011;62348;51.412;5.436;2023-12-29T10:25:23;2.35;;;1.02;;
73980;SDS011;62348;51.412;5.436;2023-12-29T10:27:49;2.10;;;0.82;;
73980;SDS011;62348;51.412;5.436;2023-12-29T10:30:14;3.00;;;0.90;;
73980;SDS011;62348;51.412;5.436;2023-12-29T10:32:40;3.00;;;0.80;;
73980;SDS011;62348;51.412;5.436;2023-12-29T10:35:09;3.08;;;1.15;;
73980;SDS011;62348;51.412;5.436;2023-12-29T10:37:36;3.13;;;0.73;;
73980;SDS011;62348;51.412;5.436;2023-12-29T10:40:02;3.33;;;0.95;;
73980;SDS011;62348;51.412;5.436;2023-12-29T10:42:28;4.03;;;1.42;;
73980;SDS011;62348;51.412;5.436;2023-12-29T10:45:07;2.53;;;0.90;;
73980;SDS011;62348;51.412;5.436;2023-12-29T10:47:34;4.78;;;1.20;;
73980;SDS011;62348;51.412;5.436;2023-12-29T10:50:04;4.80;;;1.35;;
73980;SDS011;62348;51.412;5.436;2023-12-29T10:52:31;2.85;;;1.10;;
73980;SDS011;62348;51.412;5.436;2023-12-29T10:55:04;6.38;;;1.40;;
73980;SDS011;62348;51.412;5.436;2023-12-29T10:57:34;4.15;;;1.38;;
73980;SDS011;62348;51.412;5.436;2023-12-29T11:00:00;7.28;;;1.70;;
73980;SDS011;62348;51.412;5.436;2023-12-29T11:02:29;7.78;;;1.70;;
73980;SDS011;62348;51.412;5.436;2023-12-29T11:07:36;3.33;;;1.20;;
73980;SDS011;62348;51.412;5.436;2023-12-29T11:10:03;8.90;;;1.65;;
73980;SDS011;62348;51.412;5.436;2023-12-29T11:12:34;3.92;;;1.10;;
73980;SDS011;62348;51.412;5.436;2023-12-29T11:15:02;3.83;;;1.38;;
73980;SDS011;62348;51.412;5.436;2023-12-29T11:17:29;6.15;;;1.08;;
73980;SDS011;62348;51.412;5.436;2023-12-29T11:19:57;5.68;;;1.23;;
73980;SDS011;62348;51.412;5.436;2023-12-29T11:22:30;5.18;;;1.25;;
73980;SDS011;62348;51.412;5.436;2023-12-29T11:24:59;4.80;;;1.20;;
73980;SDS011;62348;51.412;5.436;2023-12-29T11:27:28;6.18;;;1.75;;
73980;SDS011;62348;51.412;5.436;2023-12-29T11:29:56;5.47;;;1.45;;
73980;SDS011;62348;51.412;5.436;2023-12-29T11:32:25;6.35;;;1.20;;
73980;SDS011;62348;51.412;5.436;2023-12-29T11:35:02;5.75;;;1.65;;
73980;SDS011;62348;51.412;5.436;2023-12-29T11:37:43;6.20;;;1.33;;
73980;SDS011;62348;51.412;5.436;2023-12-29T11:42:51;2.80;;;1.00;;
73980;SDS011;62348;51.412;5.436;2023-12-29T11:45:23;4.03;;;1.00;;
73980;SDS011;62348;51.412;5.436;2023-12-29T11:47:50;2.13;;;1.00;;
73980;SDS011;62348;51.412;5.436;2023-12-29T11:50:26;2.38;;;0.90;;
73980;SDS011;62348;51.412;5.436;2023-12-29T11:52:53;5.60;;;1.50;;
73980;SDS011;62348;51.412;5.436;2023-12-29T11:55:18;3.95;;;1.20;;
73980;SDS011;62348;51.412;5.436;2023-12-29T11:57:44;4.28;;;1.27;;
73980;SDS011;62348;51.412;5.436;2023-12-29T12:00:10;6.68;;;1.52;;
73980;SDS011;62348;51.412;5.436;2023-12-29T12:02:36;3.15;;;1.02;;
73980;SDS011;62348;51.412;5.436;2023-12-29T12:05:03;7.68;;;1.52;;
73980;SDS011;62348;51.412;5.436;2023-12-29T12:12:44;3.72;;;1.83;;
73980;SDS011;62348;51.412;5.436;2023-12-29T12:17:54;4.78;;;2.00;;
73980;SDS011;62348;51.412;5.436;2023-12-29T12:20:24;5.70;;;1.88;;
73980;SDS011;62348;51.412;5.436;2023-12-29T12:22:57;4.50;;;1.75;;
73980;SDS011;62348;51.412;5.436;2023-12-29T12:25:24;7.23;;;1.93;;
73980;SDS011;62348;51.412;5.436;2023-12-29T12:27:53;6.72;;;1.88;;
73980;SDS011;62348;51.412;5.436;2023-12-29T12:30:18;5.75;;;1.85;;
73980;SDS011;62348;51.412;5.436;2023-12-29T12:32:44;10.73;;;2.10;;
73980;SDS011;62348;51.412;5.436;2023-12-29T12:35:14;8.55;;;2.38;;
73980;SDS011;62348;51.412;5.436;2023-12-29T12:40:08;5.30;;;2.10;;
73980;SDS011;62348;51.412;5.436;2023-12-29T12:42:38;7.43;;;2.42;;
73980;SDS011;62348;51.412;5.436;2023-12-29T12:45:11;8.38;;;2.67;;
73980;SDS011;62348;51.412;5.436;2023-12-29T12:47:50;7.78;;;2.80;;
73980;SDS011;62348;51.412;5.436;2023-12-29T12:50:17;5.47;;;2.30;;
73980;SDS011;62348;51.412;5.436;2023-12-29T12:52:43;7.47;;;3.00;;
73980;SDS011;62348;51.412;5.436;2023-12-29T12:55:10;12.73;;;2.72;;
73980;SDS011;62348;51.412;5.436;2023-12-29T12:57:37;9.32;;;2.38;;
73980;SDS011;62348;51.412;5.436;2023-12-29T13:00:04;8.88;;;3.08;;
73980;SDS011;62348;51.412;5.436;2023-12-29T13:02:31;9.63;;;2.30;;
73980;SDS011;62348;51.412;5.436;2023-12-29T13:04:57;7.28;;;1.83;;
73980;SDS011;62348;51.412;5.436;2023-12-29T13:07:23;4.18;;;1.70;;
73980;SDS011;62348;51.412;5.436;2023-12-29T13:09:49;8.52;;;1.73;;
73980;SDS011;62348;51.412;5.436;2023-12-29T13:12:16;6.38;;;1.65;;
73980;SDS011;62348;51.412;5.436;2023-12-29T13:14:43;5.38;;;2.05;;
73980;SDS011;62348;51.412;5.436;2023-12-29T13:17:09;5.90;;;1.63;;
73980;SDS011;62348;51.412;5.436;2023-12-29T13:19:36;6.82;;;1.70;;
73980;SDS011;62348;51.412;5.436;2023-12-29T13:22:01;4.30;;;1.30;;
73980;SDS011;62348;51.412;5.436;2023-12-29T13:24:30;4.95;;;1.70;;
73980;SDS011;62348;51.412;5.436;2023-12-29T13:26:57;5.07;;;1.33;;
73980;SDS011;62348;51.412;5.436;2023-12-29T13:29:26;4.88;;;1.10;;
73980;SDS011;62348;51.412;5.436;2023-12-29T13:31:54;3.80;;;1.45;;
73980;SDS011;62348;51.412;5.436;2023-12-29T13:35:08;4.78;;;1.70;;
73980;SDS011;62348;51.412;5.436;2023-12-29T13:40:17;3.25;;;1.30;;
73980;SDS011;62348;51.412;5.436;2023-12-29T13:42:50;6.25;;;2.20;;
73980;SDS011;62348;51.412;5.436;2023-12-29T13:45:22;3.75;;;1.10;;
73980;SDS011;62348;51.412;5.436;2023-12-29T13:47:48;6.38;;;1.10;;
73980;SDS011;62348;51.412;5.436;2023-12-29T13:50:14;4.28;;;1.20;;
73980;SDS011;62348;51.412;5.436;2023-12-29T13:52:39;2.88;;;1.20;;
73980;SDS011;62348;51.412;5.436;2023-12-29T13:55:05;4.43;;;1.00;;
73980;SDS011;62348;51.412;5.436;2023-12-29T13:57:34;2.75;;;1.10;;
73980;SDS011;62348;51.412;5.436;2023-12-29T14:00:19;2.13;;;0.93;;
73980;SDS011;62348;51.412;5.436;2023-12-29T14:05:24;2.05;;;1.02;;
73980;SDS011;62348;51.412;5.436;2023-12-29T14:10:30;7.18;;;1.02;;
73980;SDS011;62348;51.412;5.436;2023-12-29T14:15:39;2.65;;;0.77;;
73980;SDS011;62348;51.412;5.436;2023-12-29T14:20:37;3.80;;;0.82;;
73980;SDS011;62348;51.412;5.436;2023-12-29T14:23:04;5.05;;;1.10;;
73980;SDS011;62348;51.412;5.436;2023-12-29T14:25:33;3.85;;;0.93;;
73980;SDS011;62348;51.412;5.436;2023-12-29T14:28:01;1.65;;;0.88;;
73980;SDS011;62348;51.412;5.436;2023-12-29T14:30:27;1.58;;;0.85;;
73980;SDS011;62348;51.412;5.436;2023-12-29T14:32:56;3.20;;;0.80;;
73980;SDS011;62348;51.412;5.436;2023-12-29T14:35:23;2.70;;;1.20;;
73980;SDS011;62348;51.412;5.436;2023-12-29T14:37:48;5.85;;;1.13;;
73980;SDS011;62348;51.412;5.436;2023-12-29T14:40:14;2.83;;;0.85;;
73980;SDS011;62348;51.412;5.436;2023-12-29T14:42:39;6.82;;;1.23;;
73980;SDS011;62348;51.412;5.436;2023-12-29T14:45:06;4.25;;;1.35;;
73980;SDS011;62348;51.412;5.436;2023-12-29T14:47:32;1.67;;;1.00;;
73980;SDS011;62348;51.412;5.436;2023-12-29T14:49:58;5.25;;;1.15;;
73980;SDS011;62348;51.412;5.436;2023-12-29T14:52:24;1.40;;;0.90;;
73980;SDS011;62348;51.412;5.436;2023-12-29T14:54:49;3.00;;;1.10;;
73980;SDS011;62348;51.412;5.436;2023-12-29T14:57:15;3.22;;;1.00;;
73980;SDS011;62348;51.412;5.436;2023-12-29T14:59:40;2.50;;;1.30;;
73980;SDS011;62348;51.412;5.436;2023-12-29T15:02:05;6.07;;;1.20;;
73980;SDS011;62348;51.412;5.436;2023-12-29T15:04:33;3.80;;;1.10;;
73980;SDS011;62348;51.412;5.436;2023-12-29T15:06:59;2.03;;;1.17;;
73980;SDS011;62348;51.412;5.436;2023-12-29T15:09:25;2.83;;;1.10;;
73980;SDS011;62348;51.412;5.436;2023-12-29T15:11:50;3.50;;;0.90;;
73980;SDS011;62348;51.412;5.436;2023-12-29T15:14:17;1.70;;;0.90;;
73980;SDS011;62348;51.412;5.436;2023-12-29T15:16:44;1.15;;;0.90;;
73980;SDS011;62348;51.412;5.436;2023-12-29T15:19:11;2.47;;;1.00;;